This is the latest recevied weather packets stored in our database for station/object n7wwk-1. If no packets are shown the sender has not sent any weather packets the latest 10 day(s).
| Time | Temp. | Humidity | Pressure | Rain* | Wind** | Luminosity | Snow |
|---|---|---|---|---|---|---|---|
| 1778147405 | 21.11° C | 95% | 1012.5 hPa | 0 mm | - | 0 W/m² | - |
| 1778146204 | 21.11° C | 95% | 1012.6 hPa | 0 mm | - | 0 W/m² | - |
| 1778144405 | 21.11° C | 93% | 1012.3 hPa | 0 mm | - | 0 W/m² | - |
| 1778142005 | 21.11° C | 93% | 1012.3 hPa | 0 mm | - | 0 W/m² | - |
| 1778141537 | 21.11° C | 92% | 1012.4 hPa | 0 mm | - | 0 W/m² | - |
| 1778139005 | 21.67° C | 90% | 1012.5 hPa | 0 mm | - | 0 W/m² | - |
| 1778128205 | 22.78° C | 81% | 1014.1 hPa | 0 mm | - | 0 W/m² | - |
| 1778125205 | 23.33° C | 78% | 1013.8 hPa | 0 mm | - | 0 W/m² | - |
| 1778124134 | 23.89° C | 78% | 1014.3 hPa | 0 mm | - | 0 W/m² | - |
| 1778121738 | 24.44° C | 75% | 1014 hPa | 0 mm | - | 0 W/m² | - |
| 1778117405 | 25.56° C | 70% | 1013.8 hPa | 0 mm | - | 0 W/m² | - |
| 1778108405 | 31.67° C | 60% | 1012.5 hPa | 0 mm | - | 43 W/m² | - |
| 1778104205 | 33.89° C | 45% | 1012.4 hPa | 0 mm | - | 273 W/m² | - |
| 1778098805 | 33.89° C | 47% | 1013 hPa | 0 mm | - | 410 W/m² | - |
| 1778097605 | 34.44° C | 44% | 1013.1 hPa | 0 mm | - | 555 W/m² | - |
| 1778088004 | 31.67° C | 53% | 1014.8 hPa | 0 mm | - | 620 W/m² | - |
| 1778082005 | 30° C | 59% | 1015.7 hPa | 0 mm | - | 622 W/m² | - |
| 1778079005 | 28.33° C | 62% | 1015.6 hPa | 0 mm | - | 517 W/m² | - |
| 1778077205 | 27.22° C | 69% | 1015.4 hPa | 0 mm | - | 458 W/m² | - |
| 1778076604 | 27.22° C | 70% | 1015.6 hPa | 0 mm | - | 401 W/m² | - |
| 1778070138 | 21.67° C | 84% | 1015 hPa | 0 mm | - | 140 W/m² | - |
| 1778069405 | 21.11° C | 85% | 1015 hPa | 0 mm | - | 115 W/m² | - |
| 1778067605 | 18.89° C | 90% | 1014.9 hPa | 0 mm | - | 69 W/m² | - |
| 1778067005 | 18.33° C | 92% | 1014.7 hPa | 0 mm | - | 53 W/m² | - |
| 1778060405 | 17.22° C | 93% | 1013.8 hPa | 0 mm | - | 0 W/m² | - |
* Rain latest hour (hover to see other rain measurements)
** Current wind speed in m/s (hover to see current wind gust speed)